Time;durP1;ratioP1;P1;durP2;ratioP2;P2;SDS_P1;SDS_P2;PMS_P1;PMS_P2;Temp;Humidity;BMP_temperature;BMP_pressure;BME280_temperature;BME280_humidity;BME280_pressure;Samples;Min_cycle;Max_cycle;Signal;HPM_P1;HPM_P2
2023/05/18 00:01:32;;;;;;;0.40;0.40;;;;;;;12.90;59.87;99737.78;4896855;29;20112;-82
2023/05/18 00:04:00;;;;;;;0.40;0.40;;;;;;;12.88;59.38;99737.19;4896677;29;20048;-81
2023/05/18 00:06:28;;;;;;;0.40;0.40;;;;;;;12.98;58.47;99724.66;4908942;29;20563;-82
2023/05/18 00:08:55;;;;;;;0.40;0.40;;;;;;;13.19;57.92;99738.56;4917070;29;20595;-84
2023/05/18 00:11:22;;;;;;;0.40;0.40;;;;;;;13.22;57.36;99729.97;4917112;29;20472;-83
2023/05/18 00:13:49;;;;;;;0.30;0.30;;;;;;;13.31;56.71;99733.13;4916162;29;20052;-83
2023/05/18 00:16:16;;;;;;;0.32;0.32;;;;;;;13.37;56.36;99738.41;4918479;29;20052;-84
2023/05/18 00:18:44;;;;;;;0.40;0.40;;;;;;;13.43;56.16;99742.84;4928290;29;20044;-82
2023/05/18 00:21:15;;;;;;;0.32;0.32;;;;;;;13.37;57.27;99743.00;4911473;29;20149;-84
2023/05/18 00:23:48;;;;;;;0.30;0.30;;;;;;;13.18;57.95;99740.47;4915877;29;20056;-82
2023/05/18 00:26:15;;;;;;;0.30;0.30;;;;;;;12.99;58.08;99742.56;4915379;29;20092;-82
2023/05/18 00:28:43;;;;;;;0.40;0.40;;;;;;;13.02;57.57;99746.69;4915983;29;20580;-81
2023/05/18 00:31:10;;;;;;;0.40;0.40;;;;;;;12.99;57.92;99745.28;4915665;29;20475;-82
2023/05/18 00:33:40;;;;;;;0.40;0.40;;;;;;;12.94;58.04;99734.34;4916104;29;20408;-82
2023/05/18 00:36:07;;;;;;;0.40;0.40;;;;;;;12.92;58.65;99747.31;4884462;29;20052;-80
2023/05/18 00:38:34;;;;;;;0.40;0.40;;;;;;;12.89;58.02;99747.78;4900169;29;20499;-82
2023/05/18 00:41:02;;;;;;;0.40;0.40;;;;;;;12.98;57.67;99745.50;4907901;23;20055;-82
2023/05/18 00:43:29;;;;;;;0.30;0.30;;;;;;;12.96;57.69;99742.22;4916480;29;20070;-82
2023/05/18 00:45:57;;;;;;;0.40;0.40;;;;;;;13.03;57.31;99742.91;4916607;29;20144;-82
2023/05/18 00:48:24;;;;;;;0.40;0.40;;;;;;;13.08;57.08;99742.16;4916595;29;20052;-81
2023/05/18 00:50:52;;;;;;;0.40;0.40;;;;;;;13.11;56.85;99736.25;4915724;29;20079;-82
2023/05/18 00:53:19;;;;;;;0.40;0.40;;;;;;;13.08;56.95;99737.56;4911771;29;20040;-83
2023/05/18 00:55:47;;;;;;;0.40;0.40;;;;;;;13.08;57.45;99740.28;4927176;29;20111;-84
2023/05/18 00:58:15;;;;;;;0.40;0.40;;;;;;;12.94;58.59;99734.34;4916788;29;20044;-82
2023/05/18 01:00:42;;;;;;;0.40;0.40;;;;;;;12.89;58.66;99736.97;4916391;29;20067;-83
2023/05/18 01:03:10;;;;;;;0.40;0.40;;;;;;;12.80;59.47;99736.50;4911463;29;20064;-83
2023/05/18 01:05:38;;;;;;;0.40;0.40;;;;;;;12.60;60.52;99736.09;4881310;29;20056;-82
2023/05/18 01:08:05;;;;;;;0.40;0.40;;;;;;;12.39;61.22;99740.28;4897150;29;20068;-82
2023/05/18 01:10:36;;;;;;;0.40;0.40;;;;;;;12.38;61.91;99741.31;4895608;29;20054;-83
2023/05/18 01:13:15;;;;;;;0.40;0.40;;;;;;;12.42;60.73;99739.78;4897036;29;20703;-83
2023/05/18 01:15:43;;;;;;;0.40;0.40;;;;;;;12.54;59.71;99740.59;4879777;29;20053;-82
2023/05/18 01:18:59;;;;;;;0.40;0.40;;;;;;;12.67;59.03;99733.28;4911222;29;20060;-82
2023/05/18 01:21:50;;;;;;;0.40;0.40;;;;;;;12.70;58.67;99736.31;4896620;29;20423;-81
2023/05/18 01:24:34;;;;;;;0.40;0.40;;;;;;;12.70;58.33;99743.63;4911089;29;20076;-81
2023/05/18 01:27:03;;;;;;;0.40;0.40;;;;;;;12.65;59.82;99736.22;4895516;29;20049;-82
2023/05/18 01:29:30;;;;;;;0.40;0.40;;;;;;;12.63;59.34;99743.75;4895521;29;20061;-81
2023/05/18 01:32:00;;;;;;;0.40;0.40;;;;;;;12.55;60.32;99738.72;4895806;29;20055;-82
2023/05/18 01:34:29;;;;;;;0.40;0.40;;;;;;;12.38;60.34;99752.16;4911053;29;20843;-82
2023/05/18 01:36:58;;;;;;;0.40;0.40;;;;;;;12.43;59.78;99748.75;4914092;29;20044;-82
2023/05/18 01:39:25;;;;;;;0.40;0.40;;;;;;;12.51;59.42;99745.69;4915050;29;20063;-82
2023/05/18 01:41:58;;;;;;;0.40;0.40;;;;;;;12.57;59.13;99742.81;4884031;29;20059;-82
2023/05/18 01:44:39;;;;;;;0.40;0.40;;;;;;;12.68;59.44;99741.13;4914801;29;20491;-82
2023/05/18 01:47:14;;;;;;;0.40;0.40;;;;;;;12.55;59.31;99734.09;4899900;29;20048;-82
2023/05/18 01:49:47;;;;;;;0.40;0.40;;;;;;;12.62;59.11;99750.22;4914481;29;20055;-82
2023/05/18 01:52:23;;;;;;;0.40;0.40;;;;;;;12.64;58.81;99750.81;4915259;29;20082;-82
2023/05/18 01:54:53;;;;;;;0.40;0.40;;;;;;;12.65;59.21;99740.81;4915286;29;20115;-81
2023/05/18 01:57:22;;;;;;;0.40;0.40;;;;;;;12.71;58.94;99756.09;4913857;29;20060;-82
2023/05/18 01:59:50;;;;;;;0.40;0.40;;;;;;;12.68;58.72;99748.44;4898234;29;20107;-81
2023/05/18 02:02:17;;;;;;;0.40;0.40;;;;;;;12.80;58.60;99751.94;4897633;29;20063;-82
2023/05/18 02:04:44;;;;;;;0.40;0.40;;;;;;;12.76;58.70;99746.19;4913755;29;20476;-82
2023/05/18 02:07:13;;;;;;;0.30;0.30;;;;;;;12.81;58.54;99750.88;4913893;29;20511;-81
2023/05/18 02:09:43;;;;;;;0.40;0.40;;;;;;;12.81;58.40;99753.56;4913901;29;20137;-82
2023/05/18 02:12:10;;;;;;;0.40;0.40;;;;;;;12.84;58.49;99763.09;4913542;29;20052;-82
2023/05/18 02:14:38;;;;;;;0.40;0.40;;;;;;;12.80;58.43;99760.88;4914927;29;20056;-82
2023/05/18 02:17:06;;;;;;;0.40;0.40;;;;;;;12.83;58.53;99756.88;4914698;29;20122;-82
2023/05/18 02:19:36;;;;;;;0.40;0.40;;;;;;;12.90;58.24;99765.69;4914809;29;20144;-81
2023/05/18 02:22:05;;;;;;;0.40;0.40;;;;;;;12.91;58.63;99761.94;4914279;29;20487;-82
2023/05/18 02:24:36;;;;;;;0.40;0.40;;;;;;;12.97;58.48;99760.13;4914566;29;20210;-81
2023/05/18 02:27:04;;;;;;;0.40;0.40;;;;;;;12.96;58.07;99759.31;4897646;29;20525;-81
2023/05/18 02:29:31;;;;;;;0.40;0.40;;;;;;;13.01;57.92;99762.13;4912454;29;20054;-81
2023/05/18 02:31:58;;;;;;;0.40;0.40;;;;;;;13.13;58.07;99764.75;4912815;29;20044;-80
2023/05/18 02:34:26;;;;;;;0.40;0.40;;;;;;;13.21;56.99;99758.94;4919644;29;20109;-81
2023/05/18 02:36:56;;;;;;;0.40;0.40;;;;;;;13.33;56.56;99760.81;4914053;29;20096;-82
2023/05/18 02:39:24;;;;;;;0.40;0.40;;;;;;;13.36;56.25;99757.63;4912958;29;20086;-82
2023/05/18 02:41:51;;;;;;;0.40;0.40;;;;;;;13.38;55.89;99752.78;4913562;29;20401;-82
2023/05/18 02:44:18;;;;;;;0.40;0.40;;;;;;;13.42;56.02;99740.38;4913339;29;20063;-82
2023/05/18 02:46:47;;;;;;;0.40;0.40;;;;;;;13.57;55.93;99762.34;4914462;29;20515;-81
2023/05/18 02:49:15;;;;;;;0.40;0.40;;;;;;;13.62;56.11;99756.16;4913983;29;20104;-81
2023/05/18 02:51:42;;;;;;;0.40;0.40;;;;;;;13.63;56.26;99757.81;4914464;29;20078;-81
2023/05/18 02:54:10;;;;;;;0.40;0.40;;;;;;;13.65;55.53;99753.78;4897485;29;20143;-82
2023/05/18 02:56:40;;;;;;;0.40;0.40;;;;;;;13.71;55.82;99757.38;4912829;29;20087;-83
2023/05/18 02:59:16;;;;;;;0.40;0.40;;;;;;;13.73;56.25;99747.13;4912609;29;20412;-82
2023/05/18 03:01:44;;;;;;;0.40;0.40;;;;;;;13.81;56.30;99754.84;4894652;29;20051;-83
2023/05/18 03:04:12;;;;;;;0.40;0.40;;;;;;;13.80;55.54;99747.78;4911699;29;20056;-83
2023/05/18 03:06:46;;;;;;;0.40;0.40;;;;;;;13.86;55.03;99741.34;4913876;29;20049;-81
2023/05/18 03:09:15;;;;;;;0.40;0.40;;;;;;;13.97;56.50;99747.75;4913508;29;20076;-82
2023/05/18 03:11:44;;;;;;;0.40;0.40;;;;;;;14.08;56.62;99752.28;4913318;29;20774;-82
2023/05/18 03:14:11;;;;;;;0.40;0.40;;;;;;;14.16;55.70;99758.34;4913189;29;20056;-82
2023/05/18 03:16:39;;;;;;;0.40;0.40;;;;;;;14.21;55.13;99755.72;4913924;29;20060;-82
2023/05/18 03:19:14;;;;;;;0.40;0.40;;;;;;;14.31;54.66;99766.72;4913439;29;20100;-83
2023/05/18 03:21:41;;;;;;;0.40;0.40;;;;;;;14.35;54.26;99764.31;4913969;29;20104;-82
2023/05/18 03:24:10;;;;;;;0.40;0.40;;;;;;;14.46;53.92;99774.25;4918831;29;20114;-81
2023/05/18 03:26:42;;;;;;;0.40;0.40;;;;;;;14.50;54.13;99767.22;4903824;29;20475;-81
2023/05/18 03:29:12;;;;;;;0.40;0.40;;;;;;;14.55;53.72;99764.59;4908255;29;20051;-82
2023/05/18 03:31:40;;;;;;;0.40;0.40;;;;;;;14.65;53.40;99769.34;4921691;29;20048;-82
2023/05/18 03:34:09;;;;;;;0.40;0.40;;;;;;;14.72;53.49;99780.84;4919013;29;20558;-82
2023/05/18 03:36:41;;;;;;;0.40;0.40;;;;;;;14.82;53.35;99772.00;4924573;29;20083;-82
2023/05/18 03:39:09;;;;;;;0.40;0.40;;;;;;;14.89;53.43;99775.34;4895423;29;20139;-82
2023/05/18 03:41:36;;;;;;;0.40;0.40;;;;;;;14.93;53.14;99776.47;4900101;29;20063;-81
2023/05/18 03:44:07;;;;;;;0.30;0.30;;;;;;;14.98;53.34;99779.25;4903722;29;20070;-82
2023/05/18 03:46:35;;;;;;;0.40;0.40;;;;;;;15.04;52.83;99778.25;4924601;29;20056;-82
2023/05/18 03:49:05;;;;;;;0.40;0.40;;;;;;;15.10;52.58;99763.63;4927249;29;20051;-82
2023/05/18 03:51:37;;;;;;;0.40;0.40;;;;;;;15.13;52.78;99760.38;4919314;29;20059;-82
2023/05/18 03:54:05;;;;;;;0.40;0.40;;;;;;;15.34;52.37;99782.34;4917583;29;20651;-81
2023/05/18 03:56:32;;;;;;;0.40;0.40;;;;;;;15.49;52.11;99778.94;4896424;29;20047;-81
2023/05/18 03:59:02;;;;;;;0.40;0.40;;;;;;;15.55;51.16;99783.38;4928293;29;20130;-81
2023/05/18 04:01:31;;;;;;;0.40;0.40;;;;;;;15.67;51.50;99780.47;4886739;29;20450;-81
2023/05/18 04:04:00;;;;;;;0.40;0.40;;;;;;;15.61;50.52;99764.09;4897060;29;20060;-82
2023/05/18 04:06:28;;;;;;;0.40;0.40;;;;;;;15.85;50.61;99782.84;4905881;29;20490;-81
2023/05/18 04:09:03;;;;;;;0.40;0.40;;;;;;;15.83;51.08;99768.66;4897212;29;20041;-81
2023/05/18 04:11:32;;;;;;;;;;;;;;;15.95;50.69;99788.38;4899076;29;20059;-81
2023/05/18 04:14:07;;;;;;;0.40;0.40;;;;;;;15.88;50.46;99773.34;4897138;29;19927;-81
2023/05/18 04:16:34;;;;;;;0.40;0.40;;;;;;;16.02;50.40;99778.06;4897784;29;20055;-81
2023/05/18 04:19:02;;;;;;;0.40;0.40;;;;;;;15.99;50.13;99767.69;4897907;29;20527;-81
2023/05/18 04:21:35;;;;;;;0.40;0.40;;;;;;;16.22;49.72;99785.53;4899078;29;20049;-81
2023/05/18 04:24:06;;;;;;;0.40;0.40;;;;;;;16.24;49.87;99777.94;4912415;29;20058;-81
2023/05/18 04:26:35;;;;;;;0.40;0.40;;;;;;;16.32;49.80;99782.06;4912633;29;20050;-82
2023/05/18 04:29:02;;;;;;;0.40;0.40;;;;;;;16.44;50.13;99787.31;4896873;29;20052;-81
2023/05/18 04:31:33;;;;;;;0.40;0.40;;;;;;;16.58;49.23;99790.38;4898863;29;20095;-81
2023/05/18 04:34:00;;;;;;;0.40;0.40;;;;;;;16.67;48.25;99791.50;4900188;29;20695;-81
2023/05/18 04:36:30;;;;;;;0.40;0.40;;;;;;;16.73;47.65;99765.91;4897949;29;20123;-81
2023/05/18 04:39:06;;;;;;;0.40;0.40;;;;;;;16.92;47.86;99788.09;4891923;29;20486;-81
2023/05/18 04:41:34;;;;;;;0.30;0.30;;;;;;;16.97;48.16;99773.69;4906733;29;20119;-81
2023/05/18 04:44:02;;;;;;;0.40;0.40;;;;;;;17.15;47.60;99781.34;4901863;29;20052;-81
2023/05/18 04:47:00;;;;;;;0.40;0.40;;;;;;;17.30;47.66;99775.13;4898322;29;20104;-80
2023/05/18 04:49:28;;;;;;;0.30;0.30;;;;;;;17.38;47.62;99768.31;4903675;29;20052;-81
2023/05/18 04:52:01;;;;;;;0.30;0.30;;;;;;;17.63;46.46;99772.97;4900221;29;20045;-80
2023/05/18 04:54:29;;;;;;;0.30;0.30;;;;;;;17.58;46.15;99760.13;4911200;29;20060;-82
2023/05/18 04:56:57;;;;;;;0.40;0.40;;;;;;;17.67;46.49;99757.69;4915219;29;20103;-81
2023/05/18 04:59:36;;;;;;;0.30;0.30;;;;;;;17.84;46.17;99774.63;4898649;29;20388;-81
2023/05/18 05:02:04;;;;;;;0.30;0.30;;;;;;;17.92;45.63;99765.06;4519032;29;10001058;-81
2023/05/18 05:04:32;;;;;;;0.32;0.32;;;;;;;18.06;45.54;99774.34;4853941;29;20358;-82
2023/05/18 05:07:02;;;;;;;0.40;0.40;;;;;;;17.98;44.32;99764.00;4855830;29;20125;-81
2023/05/18 05:09:31;;;;;;;0.35;0.35;;;;;;;17.92;43.77;99759.59;4860078;29;20140;-81
2023/05/18 05:12:02;;;;;;;0.30;0.30;;;;;;;18.03;43.77;99777.63;4870763;29;20725;-83
2023/05/18 05:14:38;;;;;;;0.30;0.30;;;;;;;18.04;43.87;99770.25;4869767;29;20915;-80
2023/05/18 05:17:05;;;;;;;0.35;0.35;;;;;;;18.14;43.51;99765.59;4869847;29;20045;-81
2023/05/18 05:19:35;;;;;;;0.40;0.40;;;;;;;18.36;43.31;99772.66;4858010;29;20057;-81
2023/05/18 05:22:02;;;;;;;0.30;0.30;;;;;;;18.47;43.23;99759.78;4868917;29;20580;-80
2023/05/18 05:24:29;;;;;;;0.30;0.30;;;;;;;18.67;43.26;99767.91;4852637;29;20049;-81
2023/05/18 05:26:58;;;;;;;0.30;0.30;;;;;;;18.77;42.14;99770.63;4836269;29;20089;-81
2023/05/18 05:29:26;;;;;;;0.30;0.30;;;;;;;18.89;42.31;99770.31;4835413;29;20050;-81
2023/05/18 05:31:55;;;;;;;0.30;0.30;;;;;;;19.04;42.17;99777.59;4860660;29;20061;-81
2023/05/18 05:34:24;;;;;;;0.30;0.30;;;;;;;19.14;41.69;99777.56;4869735;29;20089;-81
2023/05/18 05:36:52;;;;;;;0.38;0.38;;;;;;;19.19;41.45;99776.69;4870084;29;20053;-81
2023/05/18 05:39:19;;;;;;;0.40;0.40;;;;;;;19.27;41.63;99768.72;4855510;29;20049;-81
2023/05/18 05:41:49;;;;;;;0.30;0.30;;;;;;;19.29;41.79;99768.41;4869719;29;20753;-81
2023/05/18 05:44:19;;;;;;;0.30;0.30;;;;;;;19.44;41.61;99770.25;4861572;29;20128;-81
2023/05/18 05:46:47;;;;;;;0.30;0.30;;;;;;;19.55;40.98;99773.75;4870061;29;20121;-81
2023/05/18 05:49:15;;;;;;;0.30;0.30;;;;;;;19.78;40.86;99764.00;4870586;29;20539;-81
2023/05/18 05:51:45;;;;;;;0.30;0.30;;;;;;;19.93;40.07;99772.09;4872159;29;20060;-80
2023/05/18 05:54:13;;;;;;;0.38;0.38;;;;;;;19.92;40.45;99762.22;4870923;29;20084;-80
2023/05/18 05:56:40;;;;;;;0.35;0.35;;;;;;;19.96;40.75;99759.75;4838908;29;20622;-80
2023/05/18 05:59:11;;;;;;;0.30;0.30;;;;;;;20.05;39.95;99761.56;4857184;29;20073;-80
2023/05/18 06:01:38;;;;;;;0.30;0.30;;;;;;;20.13;40.35;99760.13;4872701;29;20057;-81
2023/05/18 06:04:09;;;;;;;0.30;0.30;;;;;;;20.28;40.34;99773.66;4858246;29;20106;-80
2023/05/18 06:09:26;;;;;;;0.30;0.30;;;;;;;20.44;40.08;99765.28;4859705;29;20081;-81
2023/05/18 06:11:54;;;;;;;0.30;0.30;;;;;;;20.60;39.91;99772.22;4872810;29;20524;-80
2023/05/18 06:14:23;;;;;;;0.30;0.30;;;;;;;20.76;40.31;99767.38;4857032;29;20058;-80
2023/05/18 06:16:50;;;;;;;0.30;0.30;;;;;;;20.86;39.44;99758.19;4857442;29;20124;-81
2023/05/18 06:19:18;;;;;;;0.30;0.30;;;;;;;20.89;38.38;99763.94;4857886;29;20057;-80
2023/05/18 06:21:45;;;;;;;0.30;0.30;;;;;;;20.98;38.72;99766.81;4858158;29;20045;-80
2023/05/18 06:24:13;;;;;;;0.30;0.30;;;;;;;21.17;38.88;99775.91;4842213;29;20106;-80
2023/05/18 06:27:12;;;;;;;0.30;0.30;;;;;;;21.40;37.58;99765.16;4875111;29;20053;-81
2023/05/18 06:29:53;;;;;;;0.30;0.30;;;;;;;21.26;38.14;99766.97;4860221;29;20137;-81
2023/05/18 06:32:39;;;;;;;0.30;0.30;;;;;;;21.19;38.78;99756.38;4859762;29;20056;-81
2023/05/18 06:35:11;;;;;;;0.30;0.30;;;;;;;21.39;38.45;99766.25;4858796;29;20461;-81
2023/05/18 06:37:41;;;;;;;0.30;0.30;;;;;;;21.36;36.39;99764.09;4874171;29;20049;-80
2023/05/18 06:40:12;;;;;;;0.30;0.30;;;;;;;21.42;35.76;99765.66;4874222;29;20056;-80
2023/05/18 06:42:39;;;;;;;0.30;0.30;;;;;;;21.48;35.42;99764.47;4858545;29;20531;-79
2023/05/18 06:45:31;;;;;;;0.30;0.30;;;;;;;21.68;34.98;99765.28;4872909;29;20188;-81
2023/05/18 06:48:17;;;;;;;0.30;0.30;;;;;;;21.75;35.91;99769.28;4858080;29;20052;-82
2023/05/18 06:50:47;;;;;;;0.30;0.30;;;;;;;21.95;36.18;99762.63;4855041;29;20516;-81
2023/05/18 06:53:15;;;;;;;0.30;0.30;;;;;;;21.93;35.67;99753.84;4865241;29;20064;-80
2023/05/18 06:55:44;;;;;;;0.30;0.30;;;;;;;22.02;34.74;99756.72;4868518;29;20089;-80
2023/05/18 06:58:11;;;;;;;0.30;0.30;;;;;;;22.08;34.32;99755.53;4873428;29;20147;-80
2023/05/18 07:00:42;;;;;;;0.30;0.30;;;;;;;22.08;34.61;99744.53;4858748;29;20061;-81
2023/05/18 07:03:10;;;;;;;0.30;0.30;;;;;;;22.20;33.83;99744.84;4854031;29;20141;-80
2023/05/18 07:05:38;;;;;;;0.30;0.30;;;;;;;22.48;33.29;99761.38;4854766;29;20149;-80
2023/05/18 07:08:09;;;;;;;0.30;0.30;;;;;;;22.52;31.44;99773.41;4840843;29;20046;-80
2023/05/18 07:10:36;;;;;;;0.30;0.30;;;;;;;22.43;31.72;99776.06;4856959;29;20080;-80
2023/05/18 07:13:06;;;;;;;0.30;0.30;;;;;;;22.48;31.29;99767.72;4872548;29;20145;-79
2023/05/18 07:15:33;;;;;;;0.30;0.30;;;;;;;22.66;30.04;99776.16;4860978;29;20053;-78
2023/05/18 07:18:03;;;;;;;0.30;0.30;;;;;;;22.82;29.50;99769.22;4868464;29;20049;-79
2023/05/18 07:20:33;;;;;;;0.30;0.30;;;;;;;22.82;29.94;99758.22;4873836;29;20053;-80
2023/05/18 07:23:01;;;;;;;0.30;0.30;;;;;;;22.66;30.27;99757.72;4876378;29;20063;-79
2023/05/18 07:25:28;;;;;;;0.30;0.30;;;;;;;22.51;30.83;99747.03;4870658;29;20531;-80
2023/05/18 07:27:56;;;;;;;0.30;0.30;;;;;;;22.55;30.75;99770.03;4877221;29;20056;-80
2023/05/18 07:30:26;;;;;;;0.30;0.30;;;;;;;22.58;30.33;99766.66;4867326;29;20057;-80
2023/05/18 07:33:14;;;;;;;0.30;0.30;;;;;;;22.81;30.31;99762.06;4875113;29;20691;-80
2023/05/18 07:35:44;;;;;;;0.30;0.30;;;;;;;23.03;29.89;99768.81;4866149;29;20467;-79
2023/05/18 07:38:12;;;;;;;0.30;0.30;;;;;;;22.68;29.73;99760.97;4861174;29;20081;-80
2023/05/18 07:40:39;;;;;;;0.30;0.30;;;;;;;22.38;30.72;99753.31;4862577;29;20056;-81
2023/05/18 07:43:30;;;;;;;0.40;0.40;;;;;;;22.89;29.58;99764.13;4862593;29;20082;-81
2023/05/18 07:45:57;;;;;;;0.40;0.40;;;;;;;23.16;29.37;99759.69;4861285;29;20509;-80
2023/05/18 07:48:24;;;;;;;0.40;0.40;;;;;;;23.36;29.91;99756.47;4860912;29;20053;-79
2023/05/18 07:51:10;;;;;;;0.40;0.40;;;;;;;23.48;28.95;99774.41;4861361;29;20056;-79
2023/05/18 07:53:40;;;;;;;0.40;0.40;;;;;;;23.68;28.23;99757.38;4859614;29;20053;-79
2023/05/18 07:56:08;;;;;;;0.40;0.40;;;;;;;23.55;28.36;99766.53;4859458;29;20142;-80
2023/05/18 07:58:36;;;;;;;0.40;0.40;;;;;;;23.63;28.48;99765.75;4864771;29;20049;-80
2023/05/18 08:01:03;;;;;;;0.40;0.40;;;;;;;23.56;28.94;99777.22;4870967;29;20105;-79
2023/05/18 08:03:31;;;;;;;0.40;0.40;;;;;;;23.92;28.10;99762.56;4867790;29;20428;-80
2023/05/18 08:05:59;;;;;;;0.40;0.40;;;;;;;24.15;27.28;99771.63;4873888;29;20045;-80
2023/05/18 08:08:27;;;;;;;0.40;0.40;;;;;;;23.99;27.69;99773.16;4866820;29;20049;-79
2023/05/18 08:10:58;;;;;;;0.30;0.30;;;;;;;23.84;26.78;99766.09;4865486;29;20144;-79
2023/05/18 08:13:25;;;;;;;0.40;0.40;;;;;;;23.68;26.81;99751.06;4865270;29;20458;-78
2023/05/18 08:16:11;;;;;;;0.40;0.40;;;;;;;24.32;26.52;99764.56;4860367;29;20117;-79
2023/05/18 08:18:39;;;;;;;0.40;0.40;;;;;;;24.41;26.37;99768.19;4867466;29;20049;-81
2023/05/18 08:21:08;;;;;;;0.40;0.40;;;;;;;24.71;25.68;99755.47;4859209;29;20097;-81
2023/05/18 08:23:36;;;;;;;0.40;0.40;;;;;;;24.87;25.20;99750.34;4875025;29;20140;-78
2023/05/18 08:26:06;;;;;;;0.40;0.40;;;;;;;24.88;25.03;99738.16;4864569;29;20060;-80
2023/05/18 08:28:34;;;;;;;0.40;0.40;;;;;;;25.07;25.41;99735.91;4866486;29;20144;-81
2023/05/18 08:31:01;;;;;;;0.40;0.40;;;;;;;25.56;25.37;99746.81;4858538;29;20056;-82
2023/05/18 08:33:28;;;;;;;0.30;0.30;;;;;;;25.70;25.00;99752.16;4859970;29;20052;-81
2023/05/18 08:35:55;;;;;;;0.20;0.20;;;;;;;24.45;26.38;99747.13;4858920;29;20056;-80
2023/05/18 08:38:22;;;;;;;0.40;0.40;;;;;;;24.70;25.90;99733.75;4859935;29;20054;-81
2023/05/18 08:40:58;;;;;;;0.40;0.40;;;;;;;25.23;25.53;99718.91;4859887;29;20472;-81
2023/05/18 08:43:32;;;;;;;0.40;0.40;;;;;;;25.79;25.31;99733.63;4859673;29;20057;-82
2023/05/18 08:46:21;;;;;;;0.17;0.17;;;;;;;25.79;25.05;99739.16;4859444;29;20057;-81
2023/05/18 08:48:52;;;;;;;0.40;0.40;;;;;;;25.28;25.55;99725.06;4873079;29;20056;-81
2023/05/18 08:51:20;;;;;;;0.40;0.40;;;;;;;25.66;25.12;99740.97;4858105;29;20054;-81
2023/05/18 08:53:52;;;;;;;0.40;0.40;;;;;;;26.24;24.65;99733.19;4859428;29;20057;-81
2023/05/18 08:56:22;;;;;;;0.40;0.40;;;;;;;26.54;24.77;99722.19;4873427;29;20054;-82
2023/05/18 08:58:53;;;;;;;0.30;0.30;;;;;;;26.75;24.46;99736.06;4859524;29;20140;-81
2023/05/18 09:01:27;;;;;;;0.40;0.40;;;;;;;27.09;23.93;99732.22;4858032;29;20662;-81
2023/05/18 09:03:56;;;;;;;0.50;0.50;;;;;;;27.87;22.80;99739.09;4842740;29;20217;-81
2023/05/18 09:06:25;;;;;;;0.40;0.40;;;;;;;28.66;22.23;99728.69;4859331;29;20057;-82
2023/05/18 09:08:53;;;;;;;0.30;0.30;;;;;;;28.80;21.74;99724.75;4859787;29;20100;-81
2023/05/18 09:11:25;;;;;;;0.40;0.40;;;;;;;28.63;22.21;99734.94;4875522;29;20053;-81
2023/05/18 09:13:53;;;;;;;0.40;0.40;;;;;;;28.33;22.77;99737.09;4859509;29;20057;-82
2023/05/18 09:16:21;;;;;;;0.10;0.10;;;;;;;27.70;22.83;99725.38;4859195;29;20061;-80
2023/05/18 09:18:48;;;;;;;0.40;0.40;;;;;;;27.36;23.44;99724.56;4843454;29;20045;-81
2023/05/18 09:21:15;;;;;;;0.45;0.45;;;;;;;28.25;22.76;99708.28;4859463;29;20077;-82
2023/05/18 09:23:43;;;;;;;0.40;0.40;;;;;;;29.12;22.01;99709.09;4859343;29;20402;-81
2023/05/18 09:26:12;;;;;;;0.40;0.40;;;;;;;30.05;20.69;99724.75;4857941;29;20136;-81
2023/05/18 09:28:41;;;;;;;0.40;0.40;;;;;;;29.48;21.10;99712.88;4857277;29;20077;-81
2023/05/18 09:31:18;;;;;;;0.40;0.40;;;;;;;28.87;21.42;99736.06;4871427;29;20049;-81
2023/05/18 09:33:46;;;;;;;0.40;0.40;;;;;;;29.43;20.39;99713.13;4850799;29;20064;-82
2023/05/18 09:36:15;;;;;;;0.40;0.40;;;;;;;29.81;20.78;99724.56;4841439;29;20054;-81
2023/05/18 09:38:46;;;;;;;0.43;0.43;;;;;;;30.10;20.76;99730.06;4824639;29;20148;-82
2023/05/18 09:41:18;;;;;;;0.30;0.30;;;;;;;29.87;20.52;99715.94;4873156;29;20164;-82
2023/05/18 09:50:36;;;;;;;0.20;0.20;;;;;;;26.87;24.44;99715.97;4895625;29;20147;-82
2023/05/18 09:53:23;;;;;;;0.20;0.20;;;;;;;26.64;24.06;99720.97;4894268;29;20055;-81
2023/05/18 09:55:50;;;;;;;0.20;0.20;;;;;;;26.32;24.46;99690.03;4894698;29;20376;-82
2023/05/18 09:58:23;;;;;;;0.20;0.20;;;;;;;26.23;24.31;99701.16;4894461;29;20060;-81
2023/05/18 10:00:55;;;;;;;0.50;0.50;;;;;;;27.34;23.16;99715.78;4892961;29;20075;-84
2023/05/18 10:03:23;;;;;;;0.50;0.50;;;;;;;28.71;21.77;99711.81;4910519;29;20056;-82
2023/05/18 10:05:51;;;;;;;0.50;0.50;;;;;;;29.45;21.18;99708.84;4891000;29;20048;-83
2023/05/18 10:08:22;;;;;;;0.40;0.40;;;;;;;29.84;20.76;99697.19;4894823;29;20084;-84
2023/05/18 10:10:51;;;;;;;0.20;0.20;;;;;;;29.69;20.96;99696.00;4890638;29;20059;-82
2023/05/18 10:13:25;;;;;;;0.20;0.20;;;;;;;28.35;22.25;99690.38;4884878;29;20093;-82
2023/05/18 10:15:59;;;;;;;0.20;0.20;;;;;;;27.42;23.30;99696.31;4890595;29;20088;-83
2023/05/18 10:18:31;;;;;;;0.40;0.40;;;;;;;27.08;24.02;99686.31;4883981;29;20107;-82
2023/05/18 10:21:00;;;;;;;0.50;0.50;;;;;;;29.00;21.53;99689.63;4882654;29;20060;-83
2023/05/18 10:23:31;;;;;;;0.40;0.40;;;;;;;30.57;20.72;99701.41;4876868;29;20049;-83
2023/05/18 10:25:59;;;;;;;0.40;0.40;;;;;;;31.44;19.68;99696.56;4891259;29;20053;-82
2023/05/18 10:28:40;;;;;;;0.40;0.40;;;;;;;31.29;19.75;99698.22;4882545;29;20065;-83
2023/05/18 10:31:14;;;;;;;0.40;0.40;;;;;;;31.47;19.46;99690.25;4748723;29;10001335;-82
2023/05/18 10:33:45;;;;;;;0.40;0.40;;;;;;;30.57;20.13;99693.88;4882251;29;20307;-84
2023/05/18 10:36:12;;;;;;;0.40;0.40;;;;;;;30.02;20.38;99681.75;4888658;29;20145;-84
2023/05/18 10:38:43;;;;;;;0.40;0.40;;;;;;;30.09;20.32;99686.72;4880958;29;20456;-82
2023/05/18 10:41:15;;;;;;;0.40;0.40;;;;;;;29.89;20.67;99694.16;4882176;29;20052;-84
2023/05/18 10:43:44;;;;;;;0.40;0.40;;;;;;;30.20;21.03;99694.13;4889997;29;20048;-83
2023/05/18 10:46:14;;;;;;;0.40;0.40;;;;;;;31.70;20.08;99688.31;4873137;29;20053;-82
2023/05/18 10:48:44;;;;;;;0.40;0.40;;;;;;;31.68;19.26;99678.72;4886684;29;20075;-84
2023/05/18 10:51:12;;;;;;;0.40;0.40;;;;;;;31.80;19.14;99686.06;4887190;29;20169;-83
2023/05/18 10:53:42;;;;;;;0.40;0.40;;;;;;;32.10;18.45;99686.22;4861511;29;20048;-84
2023/05/18 10:56:10;;;;;;;0.40;0.40;;;;;;;32.22;18.53;99677.66;4880987;29;20074;-84
2023/05/18 10:58:37;;;;;;;0.40;0.40;;;;;;;31.67;18.92;99674.28;4891720;29;20545;-83
2023/05/18 11:01:07;;;;;;;0.40;0.40;;;;;;;31.00;19.69;99674.53;4876033;29;20538;-84
2023/05/18 11:03:37;;;;;;;0.40;0.40;;;;;;;31.77;19.58;99658.94;4886654;29;20060;-84
2023/05/18 11:06:07;;;;;;;0.40;0.40;;;;;;;32.03;18.60;99670.19;4879011;29;20513;-82
2023/05/18 11:08:48;;;;;;;0.40;0.40;;;;;;;32.75;18.14;99651.75;4885223;29;20104;-82
2023/05/18 11:11:15;;;;;;;0.40;0.40;;;;;;;33.75;17.95;99647.34;4876955;29;20056;-84
2023/05/18 11:13:50;;;;;;;0.40;0.40;;;;;;;34.45;17.18;99644.72;4880883;29;20049;-84
2023/05/18 11:16:18;;;;;;;0.40;0.40;;;;;;;34.86;16.40;99645.38;4892324;29;20053;-84
2023/05/18 11:18:51;;;;;;;0.40;0.40;;;;;;;35.08;15.46;99653.88;4877728;29;20151;-83
2023/05/18 11:24:30;;;;;;;0.40;0.40;;;;;;;34.69;15.72;99668.50;4878158;29;20053;-83
2023/05/18 11:27:02;;;;;;;;;;;;;;;35.30;15.78;99652.78;4881096;29;20050;-83
2023/05/18 11:29:31;;;;;;;;;;;;;;;35.97;15.60;99642.09;4869031;29;19928;-83
2023/05/18 11:31:58;;;;;;;;;;;;;;;34.46;16.47;99638.75;4857697;29;19928;-83
2023/05/18 11:34:40;;;;;;;;;;;;;;;32.85;17.62;99641.91;4853472;29;19977;-84
2023/05/18 11:37:08;;;;;;;;;;;;;;;33.49;17.18;99637.06;4857634;29;20063;-82
2023/05/18 11:39:36;;;;;;;;;;;;;;;34.60;16.50;99637.25;4863020;29;19928;-84
2023/05/18 11:42:13;;;;;;;;;;;;;;;35.79;16.02;99645.69;4872041;29;20375;-84
2023/05/18 11:44:40;;;;;;;;;;;;;;;36.20;15.04;99638.88;4873663;29;19928;-82
2023/05/18 11:47:32;;;;;;;;;;;;;;;35.67;15.33;99634.84;4956372;23;19935;-84
2023/05/18 11:49:59;;;;;;;;;;;;;;;35.81;15.19;99637.66;4831359;29;19928;-84
2023/05/18 11:52:26;;;;;;;;;;;;;;;36.14;14.85;99637.69;4836762;29;19939;-83
2023/05/18 11:54:54;;;;;;;;;;;;;;;36.31;14.31;99638.84;4832783;29;20382;-83
2023/05/18 11:57:33;;;;;;;;;;;;;;;35.70;14.79;99630.44;4839138;29;19929;-82
2023/05/18 12:00:10;;;;;;;;;;;;;;;34.43;15.94;99628.28;4832889;29;20352;-82
2023/05/18 12:02:38;;;;;;;;;;;;;;;34.44;16.13;99623.50;4833361;29;19929;-83
2023/05/18 12:05:08;;;;;;;;;;;;;;;33.03;16.94;99649.34;4839745;29;19928;-83